Time;durP1;ratioP1;P1;durP2;ratioP2;P2;SDS_P1;SDS_P2;PMS_P1;PMS_P2;Temp;Humidity;BMP_temperature;BMP_pressure;BME280_temperature;BME280_humidity;BME280_pressure;Samples;Min_cycle;Max_cycle;Signal;HPM_P1;HPM_P2
2022/03/21 00:01:27;;;;;;;41.65;25.05;;;6.20;99.90;;;4.88;100.00;98764.53;5002514;28;20504;-71
2022/03/21 00:03:55;;;;;;;43.30;27.38;;;6.10;99.90;;;4.64;100.00;98768.84;5004920;28;20423;-71
2022/03/21 00:06:22;;;;;;;44.15;27.63;;;6.00;99.90;;;4.72;100.00;98763.69;4986982;28;20119;-71
2022/03/21 00:08:49;;;;;;;39.28;23.50;;;5.90;99.90;;;5.01;100.00;98761.09;5001874;28;20843;-71
2022/03/21 00:11:16;;;;;;;39.38;25.00;;;5.90;99.90;;;5.05;100.00;98759.41;5000667;28;20052;-71
2022/03/21 00:13:43;;;;;;;37.25;23.55;;;5.90;99.90;;;5.04;100.00;98763.69;5003590;28;20140;-71
2022/03/21 00:16:12;;;;;;;39.40;23.52;;;5.80;99.90;;;5.00;100.00;98762.81;5001856;28;20552;-72
2022/03/21 00:18:40;;;;;;;37.83;22.95;;;5.80;99.90;;;4.69;100.00;98771.41;5006323;28;20467;-72
2022/03/21 00:21:07;;;;;;;34.58;21.70;;;5.70;99.90;;;4.93;100.00;98768.00;5004247;28;20050;-70
2022/03/21 00:23:35;;;;;;;40.05;23.45;;;5.70;99.90;;;4.81;100.00;98774.84;5000988;28;20136;-72
2022/03/21 00:26:03;;;;;;;46.30;25.60;;;5.60;99.90;;;4.55;100.00;98768.84;5003768;28;20061;-72
2022/03/21 00:28:30;;;;;;;41.97;23.83;;;5.50;99.90;;;4.58;100.00;98774.84;5011974;28;20358;-71
2022/03/21 00:30:58;;;;;;;39.70;23.50;;;5.40;99.90;;;4.54;100.00;98782.56;5004413;28;20760;-73
2022/03/21 00:33:26;;;;;;;32.72;22.70;;;5.30;99.90;;;4.56;100.00;98776.56;5027454;28;20046;-72
2022/03/21 00:35:53;;;;;;;37.13;21.95;;;5.30;99.90;;;4.48;100.00;98783.41;5003974;28;20046;-71
2022/03/21 00:38:21;;;;;;;32.00;19.85;;;5.30;99.90;;;4.51;100.00;98775.69;5004137;28;20140;-72
2022/03/21 00:40:50;;;;;;;33.00;21.52;;;5.20;99.90;;;4.36;100.00;98780.84;5005359;28;20493;-72
2022/03/21 00:43:22;;;;;;;33.25;19.48;;;5.20;99.90;;;4.35;100.00;98772.25;5002863;28;20045;-72
2022/03/21 00:45:55;;;;;;;36.28;21.98;;;5.10;99.90;;;4.22;100.00;98785.06;5005724;28;20061;-71
2022/03/21 00:48:24;;;;;;;33.28;21.05;;;5.10;99.90;;;4.26;100.00;98779.09;5004084;28;20468;-72
2022/03/21 00:50:53;;;;;;;32.70;20.27;;;5.10;99.90;;;4.19;100.00;98786.78;5002597;28;20045;-72
2022/03/21 00:53:21;;;;;;;34.08;20.35;;;5.10;99.90;;;4.11;100.00;98783.34;5002376;28;20078;-72
2022/03/21 00:55:50;;;;;;;36.70;22.02;;;5.10;99.90;;;4.10;100.00;98780.75;5005538;28;20062;-72
2022/03/21 00:58:17;;;;;;;39.22;22.92;;;5.10;99.90;;;3.96;100.00;98785.84;5001889;28;20057;-71
2022/03/21 01:00:45;;;;;;;37.45;22.70;;;5.10;99.90;;;3.76;100.00;98785.78;5003626;28;20085;-72
2022/03/21 01:03:12;;;;;;;30.48;20.52;;;5.00;99.90;;;4.09;100.00;98784.19;5002754;28;20521;-72
2022/03/21 01:05:40;;;;;;;38.22;21.80;;;5.00;99.90;;;3.99;100.00;98788.44;4999974;28;20046;-72
2022/03/21 01:08:07;;;;;;;34.53;21.67;;;5.00;99.90;;;4.05;100.00;98783.31;5005395;28;20064;-71
2022/03/21 01:10:35;;;;;;;35.00;22.58;;;4.90;99.90;;;4.18;100.00;98785.06;5000444;28;20579;-72
2022/03/21 01:13:03;;;;;;;32.40;21.13;;;4.90;99.90;;;4.07;100.00;98783.34;5001177;28;20479;-71
2022/03/21 01:15:30;;;;;;;36.22;22.83;;;4.90;99.90;;;4.17;100.00;98785.06;5002454;28;20048;-71
2022/03/21 01:17:58;;;;;;;34.97;21.60;;;4.90;99.90;;;4.19;100.00;98780.78;5003850;28;20054;-71
2022/03/21 01:20:26;;;;;;;30.08;19.73;;;4.90;99.90;;;4.17;100.00;98780.78;5000423;28;20129;-72
2022/03/21 01:22:53;;;;;;;32.08;21.05;;;4.80;99.90;;;4.16;100.00;98785.91;5004101;28;20073;-71
2022/03/21 01:25:20;;;;;;;34.92;21.35;;;4.80;99.90;;;4.22;100.00;98783.38;5002694;28;20451;-71
2022/03/21 01:27:47;;;;;;;33.15;21.45;;;4.80;99.90;;;4.00;100.00;98792.72;5004239;28;20084;-72
2022/03/21 01:30:16;;;;;;;32.88;22.73;;;4.80;99.90;;;3.84;100.00;98790.97;5002877;28;20123;-71
2022/03/21 01:32:45;;;;;;;35.10;23.05;;;4.80;99.90;;;3.81;100.00;98793.50;5005918;28;20050;-72
2022/03/21 01:35:16;;;;;;;38.65;23.38;;;4.70;99.90;;;3.50;100.00;98793.38;4997519;28;20089;-71
2022/03/21 01:37:45;;;;;;;39.30;23.55;;;4.60;99.90;;;3.51;100.00;98795.06;5014295;28;20066;-71
2022/03/21 01:40:15;;;;;;;37.58;23.30;;;4.60;99.90;;;3.27;100.00;98793.25;4990216;28;20161;-72
2022/03/21 01:42:43;;;;;;;36.58;22.08;;;4.50;99.90;;;3.49;100.00;98799.34;4993488;28;20091;-71
2022/03/21 01:45:11;;;;;;;43.03;22.42;;;4.40;99.90;;;3.47;100.00;98793.38;5003595;28;20093;-72
2022/03/21 01:47:39;;;;;;;38.45;22.80;;;4.40;99.90;;;3.50;100.00;98796.78;4997225;28;20073;-72
2022/03/21 01:50:07;;;;;;;34.75;21.67;;;4.40;99.90;;;3.57;100.00;98800.25;5001735;28;20181;-72
2022/03/21 01:52:38;;;;;;;32.85;21.50;;;4.40;99.90;;;3.71;100.00;98790.03;5002698;28;20111;-72
2022/03/21 01:58:11;;;;;;;37.17;22.63;;;4.40;99.90;;;3.27;100.00;98795.81;4963835;28;20054;-71
2022/03/21 02:00:41;;;;;;;36.65;23.75;;;4.40;99.90;;;3.17;100.00;98800.03;4986084;28;20057;-70
2022/03/21 02:03:08;;;;;;;33.53;22.17;;;4.30;99.90;;;3.37;100.00;98789.88;5015852;28;20050;-72
2022/03/21 02:05:38;;;;;;;33.47;21.08;;;4.30;99.90;;;3.50;100.00;98794.22;5003368;28;20049;-72
2022/03/21 02:08:05;;;;;;;32.92;21.40;;;4.30;99.90;;;3.48;100.00;98793.34;5001820;28;20062;-71
2022/03/21 02:10:32;;;;;;;33.95;21.58;;;4.30;99.90;;;3.54;100.00;98795.97;5005041;28;20052;-72
2022/03/21 02:13:00;;;;;;;37.10;21.63;;;4.20;99.90;;;3.58;100.00;98790.84;5008683;28;20090;-71
2022/03/21 02:15:27;;;;;;;34.28;21.73;;;4.30;99.90;;;3.55;100.00;98797.66;5004041;28;20516;-71
2022/03/21 02:18:02;;;;;;;36.80;23.17;;;4.30;99.90;;;3.50;100.00;98791.66;5004060;28;20129;-72
2022/03/21 02:20:35;;;;;;;37.58;22.30;;;4.30;99.90;;;3.46;100.00;98801.91;5004746;28;20125;-71
2022/03/21 02:23:43;;;;;;;38.70;24.17;;;4.30;99.90;;;3.28;100.00;98813.75;5003900;28;20081;-72
2022/03/21 02:26:12;;;;;;;32.53;22.08;;;4.30;99.90;;;3.06;100.00;98810.22;5000416;28;20073;-71
2022/03/21 02:28:40;;;;;;;34.88;21.30;;;4.20;99.90;;;2.90;100.00;98819.50;5002880;28;20056;-72
2022/03/21 02:31:08;;;;;;;30.52;21.17;;;4.20;99.90;;;2.80;100.00;98820.25;5001757;28;20077;-72
2022/03/21 02:33:35;;;;;;;35.92;21.77;;;4.00;99.90;;;2.64;100.00;98818.41;5005678;28;20096;-71
2022/03/21 02:36:03;;;;;;;33.50;21.38;;;3.90;99.90;;;2.67;100.00;98821.88;5004359;28;20081;-72
2022/03/21 02:38:32;;;;;;;33.25;21.23;;;3.80;99.90;;;2.81;100.00;98821.13;5006797;28;20084;-71
2022/03/21 02:40:59;;;;;;;31.17;20.17;;;3.60;99.90;;;2.81;100.00;98821.13;5005133;28;20418;-72
2022/03/21 02:43:26;;;;;;;31.90;20.65;;;3.70;99.90;;;2.98;100.00;98821.25;5005345;28;20140;-72
2022/03/21 02:46:06;;;;;;;32.63;20.98;;;3.70;99.90;;;2.62;100.00;98817.53;5004568;28;20416;-71
2022/03/21 02:48:33;;;;;;;34.88;21.48;;;3.80;99.90;;;2.68;100.00;98823.56;5002785;28;20057;-72
2022/03/21 02:51:02;;;;;;;31.63;20.35;;;3.80;99.90;;;2.57;100.00;98822.63;4999681;28;20594;-72
2022/03/21 02:53:35;;;;;;;32.13;21.20;;;3.80;99.90;;;2.51;100.00;98817.44;5006432;28;20216;-71
2022/03/21 02:56:02;;;;;;;32.50;21.42;;;3.70;99.90;;;2.33;100.00;98814.69;5005383;28;20543;-72
2022/03/21 02:58:29;;;;;;;32.17;21.13;;;3.70;99.90;;;2.61;100.00;98814.13;5006405;28;20345;-72
2022/03/21 03:01:11;;;;;;;30.65;20.27;;;3.60;99.90;;;2.81;100.00;98808.31;5022582;28;20156;-71
2022/03/21 03:03:39;;;;;;;33.28;20.52;;;3.60;99.90;;;2.78;100.00;98809.13;5004234;28;20046;-72
2022/03/21 03:06:08;;;;;;;31.55;20.50;;;3.70;99.90;;;2.73;100.00;98813.34;5015408;28;20072;-73
2022/03/21 03:08:38;;;;;;;29.15;19.73;;;3.70;99.90;;;2.94;100.00;98812.66;5002687;28;20543;-72
2022/03/21 03:11:05;;;;;;;33.28;19.85;;;3.70;99.90;;;3.00;100.00;98817.00;5004299;28;20079;-72
2022/03/21 03:13:32;;;;;;;32.70;19.98;;;3.80;99.90;;;2.86;100.00;98814.34;5003464;28;20145;-72
2022/03/21 03:16:01;;;;;;;33.60;20.67;;;3.80;99.90;;;2.78;100.00;98818.53;5003433;28;20153;-73
2022/03/21 03:18:28;;;;;;;33.08;20.67;;;3.80;99.90;;;2.67;100.00;98821.03;5001244;28;20058;-72
2022/03/21 03:20:58;;;;;;;31.88;21.40;;;3.80;99.90;;;2.58;100.00;98819.22;5007285;28;20129;-71
2022/03/21 03:23:29;;;;;;;30.27;19.65;;;3.70;99.90;;;2.57;100.00;98822.63;5007397;28;20132;-72
2022/03/21 03:26:03;;;;;;;32.78;21.73;;;3.70;99.90;;;2.57;100.00;98829.47;5004058;28;20116;-72
2022/03/21 03:28:31;;;;;;;30.88;20.08;;;3.60;99.90;;;2.39;100.00;98830.13;5003334;28;20149;-73
2022/03/21 03:31:14;;;;;;;28.25;19.13;;;3.60;99.90;;;2.29;100.00;98831.75;5020119;28;20057;-72
2022/03/21 03:33:45;;;;;;;30.48;19.30;;;3.50;99.90;;;2.32;100.00;98842.00;5005145;28;20050;-73
2022/03/21 03:36:17;;;;;;;32.35;20.92;;;3.50;99.90;;;2.24;100.00;98838.53;5002567;28;20149;-72
2022/03/21 03:38:45;;;;;;;31.63;19.15;;;3.50;99.90;;;2.35;100.00;98834.38;5006626;28;20077;-71
2022/03/21 03:41:13;;;;;;;31.85;20.92;;;3.40;99.90;;;2.39;100.00;98835.25;5009984;28;20045;-71
2022/03/21 03:43:43;;;;;;;29.98;20.17;;;3.40;99.90;;;2.43;100.00;98834.44;5005145;28;20106;-72
2022/03/21 03:46:10;;;;;;;31.60;21.20;;;3.40;99.90;;;2.20;100.00;98834.22;5000780;28;20061;-72
2022/03/21 03:48:38;;;;;;;33.38;21.27;;;3.40;99.90;;;2.30;100.00;98839.47;4998494;28;20493;-71
2022/03/21 03:51:05;;;;;;;33.22;20.77;;;3.40;99.90;;;2.23;100.00;98839.34;5001993;28;20053;-72
2022/03/21 03:53:33;;;;;;;32.17;21.35;;;3.30;99.90;;;2.24;100.00;98844.50;5001159;28;20073;-73
2022/03/21 03:56:00;;;;;;;36.72;23.40;;;3.30;99.90;;;2.25;100.00;98841.09;5006211;28;20137;-72
2022/03/21 03:58:27;;;;;;;38.50;23.98;;;3.30;99.90;;;2.33;100.00;98846.31;5007527;28;20084;-72
2022/03/21 04:00:54;;;;;;;34.10;21.98;;;3.30;99.90;;;2.31;100.00;98848.00;5002832;28;20056;-72
2022/03/21 04:06:07;;;;;;;32.80;22.38;;;3.30;99.90;;;2.51;100.00;98849.06;5006621;28;20109;-71
2022/03/21 04:08:34;;;;;;;40.83;24.05;;;3.30;99.90;;;2.22;100.00;98848.75;5003819;28;20085;-72
2022/03/21 04:11:00;;;;;;;39.30;24.27;;;3.30;99.90;;;2.27;100.00;98849.66;5006528;28;20056;-71
2022/03/21 04:13:28;;;;;;;35.13;23.25;;;3.30;99.90;;;2.42;100.00;98848.13;5002254;28;20138;-72
2022/03/21 04:15:54;;;;;;;36.53;22.95;;;3.30;99.90;;;2.44;100.00;98852.41;5003789;28;20097;-71
2022/03/21 04:18:22;;;;;;;33.60;22.45;;;3.30;99.90;;;2.51;100.00;98850.78;5001888;28;20180;-72
2022/03/21 04:21:08;;;;;;;33.10;20.88;;;3.30;99.90;;;2.40;100.00;98852.38;5003949;28;20046;-72
2022/03/21 04:23:36;;;;;;;37.28;22.10;;;3.30;99.90;;;2.17;100.00;98854.69;5002719;28;20046;-72
2022/03/21 04:26:03;;;;;;;34.55;22.42;;;3.20;99.90;;;2.03;100.00;98859.59;5002515;28;20429;-72
2022/03/21 04:28:30;;;;;;;35.00;22.70;;;3.20;99.90;;;1.92;100.00;98851.81;5003001;28;20488;-72
2022/03/21 04:30:57;;;;;;;31.45;20.33;;;3.10;99.90;;;1.89;100.00;98854.31;5003403;28;20100;-70
2022/03/21 04:33:24;;;;;;;31.75;21.15;;;2.90;99.90;;;1.96;100.00;98853.59;5003619;28;20115;-72
2022/03/21 04:35:51;;;;;;;32.28;20.98;;;2.90;99.90;;;1.90;100.00;98857.75;5003724;28;20698;-72
2022/03/21 04:38:18;;;;;;;32.50;21.20;;;2.90;99.90;;;1.96;100.00;98861.25;5006542;28;20141;-72
2022/03/21 04:40:48;;;;;;;27.65;18.52;;;2.90;99.90;;;2.09;100.00;98860.53;5008562;28;20458;-72
2022/03/21 04:43:17;;;;;;;30.00;19.75;;;2.90;99.90;;;2.15;100.00;98864.91;5000320;28;20085;-72
2022/03/21 04:45:46;;;;;;;33.33;19.80;;;2.90;99.90;;;2.09;100.00;98867.38;4992399;28;20156;-72
2022/03/21 04:48:14;;;;;;;32.47;20.60;;;2.90;99.90;;;1.80;100.00;98870.44;4995682;28;20065;-71
2022/03/21 04:50:43;;;;;;;30.92;21.70;;;2.90;99.90;;;1.95;100.00;98871.47;5003477;28;20046;-72
2022/03/21 04:53:11;;;;;;;28.77;19.52;;;2.80;99.90;;;2.09;100.00;98873.34;5003692;28;20144;-72
2022/03/21 04:55:40;;;;;;;34.53;20.40;;;2.90;99.90;;;2.13;100.00;98869.13;5000031;28;20101;-71
2022/03/21 04:58:08;;;;;;;31.00;20.27;;;2.90;99.90;;;1.76;100.00;98876.38;5015487;28;20050;-72
2022/03/21 05:00:38;;;;;;;30.40;20.35;;;2.90;99.90;;;1.90;100.00;98880.81;5001150;28;20124;-72
2022/03/21 05:03:09;;;;;;;31.67;20.35;;;2.90;99.90;;;1.85;100.00;98879.03;4999744;28;20054;-71
2022/03/21 05:05:43;;;;;;;37.80;22.13;;;2.80;99.90;;;1.87;100.00;98879.03;4998501;28;20058;-72
2022/03/21 05:08:11;;;;;;;30.33;18.73;;;2.70;99.90;;;1.88;100.00;98873.09;5003030;28;20069;-72
2022/03/21 05:10:39;;;;;;;27.27;18.30;;;2.70;99.90;;;2.04;100.00;98877.56;5001459;28;20129;-72
2022/03/21 05:13:09;;;;;;;29.88;18.05;;;2.70;99.90;;;2.10;100.00;98884.47;4988256;28;20050;-71
2022/03/21 05:15:36;;;;;;;28.50;17.55;;;2.80;99.90;;;2.15;100.00;98887.09;5000261;28;20145;-72
2022/03/21 05:18:04;;;;;;;28.95;18.75;;;2.80;99.90;;;2.09;100.00;98888.72;5017224;28;20053;-71
2022/03/21 05:20:32;;;;;;;30.35;19.50;;;2.80;99.90;;;1.96;100.00;98893.66;4997211;28;20045;-71
2022/03/21 05:31:16;;;;;;;34.60;20.15;;;2.60;99.90;;;1.88;100.00;98896.13;5001832;28;20133;-72
2022/03/21 05:36:29;;;;;;;30.73;19.70;;;2.70;99.90;;;1.68;100.00;98904.38;4999461;28;20130;-72
2022/03/21 05:38:57;;;;;;;37.05;22.65;;;2.60;99.90;;;1.53;100.00;98900.75;5000699;28;20144;-72
2022/03/21 05:41:26;;;;;;;36.45;21.50;;;2.50;99.90;;;1.47;100.00;98909.22;5006575;28;20057;-72
2022/03/21 05:43:53;;;;;;;35.70;23.15;;;2.50;99.90;;;1.37;100.00;98918.44;4999873;28;20534;-72
2022/03/21 05:46:21;;;;;;;38.53;23.25;;;2.40;99.90;;;1.33;100.00;98916.69;5002884;28;20128;-72
2022/03/21 05:48:54;;;;;;;40.33;24.00;;;2.40;99.90;;;1.58;100.00;98917.91;4987298;28;20065;-72
2022/03/21 05:51:43;;;;;;;36.40;22.77;;;2.50;99.90;;;1.83;100.00;98923.38;5013766;28;20045;-71
2022/03/21 05:54:12;;;;;;;34.97;22.30;;;2.50;99.90;;;1.96;100.00;98922.72;5003003;28;20132;-71
2022/03/21 05:56:41;;;;;;;36.35;23.13;;;2.60;99.90;;;1.90;100.00;98927.75;5003528;28;20153;-72
2022/03/21 06:01:54;;;;;;;40.72;23.40;;;2.70;99.90;;;1.88;100.00;98926.88;5005547;28;20085;-72
2022/03/21 06:04:23;;;;;;;29.52;20.50;;;2.70;99.90;;;1.70;100.00;98926.59;5005860;28;20117;-72
2022/03/21 06:06:51;;;;;;;29.95;19.77;;;2.70;99.90;;;1.75;100.00;98923.25;4999755;28;20058;-72
2022/03/21 06:09:18;;;;;;;33.78;20.95;;;2.60;99.90;;;1.81;100.00;98920.78;5001936;28;20049;-72
2022/03/21 06:11:48;;;;;;;33.28;21.15;;;2.60;99.90;;;1.93;100.00;98922.66;5002561;28;20084;-72
2022/03/21 06:14:18;;;;;;;33.47;20.42;;;2.70;99.90;;;1.98;100.00;98928.69;5000908;28;20097;-72
2022/03/21 06:16:47;;;;;;;35.47;21.48;;;2.70;99.90;;;2.02;100.00;98934.72;4999851;28;20101;-72
2022/03/21 06:19:14;;;;;;;38.38;23.75;;;2.80;99.90;;;2.07;100.00;98938.19;5000368;28;20535;-72
2022/03/21 06:21:41;;;;;;;37.70;22.50;;;2.80;99.90;;;2.13;100.00;98932.31;5002409;28;20064;-72
2022/03/21 06:24:12;;;;;;;32.25;20.50;;;2.80;99.90;;;2.17;100.00;98934.09;5005574;28;20049;-71
2022/03/21 06:26:42;;;;;;;33.42;21.30;;;3.00;99.90;;;2.19;100.00;98937.50;5004194;28;20069;-72
2022/03/21 06:29:09;;;;;;;35.60;21.25;;;3.00;99.90;;;2.30;100.00;98939.38;4997450;28;20053;-72
2022/03/21 06:31:37;;;;;;;36.33;21.80;;;3.10;99.90;;;2.30;100.00;98939.38;5001158;28;20038;-71
2022/03/21 06:34:04;;;;;;;35.15;21.50;;;3.20;99.90;;;2.34;100.00;98947.09;5001404;28;20045;-72
2022/03/21 06:36:31;;;;;;;33.05;21.98;;;3.20;99.90;;;2.46;100.00;98944.66;5001000;28;20484;-72
2022/03/21 06:38:58;;;;;;;32.38;20.95;;;3.30;99.90;;;2.58;100.00;98949.06;5005152;28;20132;-70
2022/03/21 06:41:25;;;;;;;31.60;20.13;;;3.40;99.90;;;2.68;100.00;98950.91;5019579;28;20080;-71
2022/03/21 06:43:52;;;;;;;34.35;21.90;;;3.40;99.90;;;2.58;100.00;98949.06;5003077;28;20133;-72
2022/03/21 06:46:19;;;;;;;34.97;22.38;;;3.40;99.90;;;2.55;100.00;98954.16;4998607;28;20488;-71
2022/03/21 06:48:46;;;;;;;36.75;23.02;;;3.50;99.90;;;2.77;100.00;98966.38;5000639;28;20052;-72
2022/03/21 06:51:13;;;;;;;33.10;22.10;;;3.60;99.90;;;3.01;100.00;98960.66;4997583;28;20596;-72
2022/03/21 06:53:41;;;;;;;32.60;20.48;;;3.80;99.90;;;3.25;100.00;98972.00;5010776;28;20300;-72
2022/03/21 06:56:08;;;;;;;33.88;21.90;;;4.00;99.90;;;2.83;100.00;98971.59;5004243;28;20074;-72
2022/03/21 06:58:34;;;;;;;37.58;24.13;;;4.20;99.90;;;2.39;100.00;98977.03;5000365;28;20088;-72
2022/03/21 07:01:02;;;;;;;38.35;24.95;;;4.20;99.90;;;2.52;100.00;98980.63;5000543;28;20088;-71
2022/03/21 07:03:30;;;;;;;41.53;27.15;;;4.20;99.90;;;2.54;100.00;98978.94;5005443;28;20546;-72
2022/03/21 07:05:58;;;;;;;38.90;24.85;;;4.30;99.90;;;2.63;100.00;98980.75;5007988;28;20507;-71
2022/03/21 07:08:30;;;;;;;35.42;23.63;;;4.30;99.90;;;2.82;100.00;98979.25;5007702;28;20042;-71
2022/03/21 07:10:57;;;;;;;34.30;22.55;;;4.30;99.90;;;3.45;100.00;98982.44;5016104;28;20049;-72
2022/03/21 07:13:27;;;;;;;33.00;22.50;;;4.40;99.90;;;3.76;100.00;98981.84;5002960;28;20471;-71
2022/03/21 07:15:55;;;;;;;31.15;20.42;;;4.60;99.90;;;4.03;100.00;98980.28;5005066;28;20539;-72
2022/03/21 07:18:22;;;;;;;33.30;22.42;;;4.90;99.90;;;4.32;100.00;98987.31;4999594;28;20112;-70
2022/03/21 07:20:49;;;;;;;32.83;21.77;;;5.10;99.90;;;4.43;100.00;98980.50;5002827;28;20518;-72
2022/03/21 07:23:16;;;;;;;34.65;21.77;;;5.30;99.90;;;4.85;100.00;98980.66;5019001;28;20073;-72
2022/03/21 07:25:43;;;;;;;38.67;22.58;;;5.60;99.90;;;5.14;100.00;98983.31;5004415;28;20125;-71
2022/03/21 07:28:09;;;;;;;28.92;19.02;;;5.90;99.90;;;5.46;100.00;98983.34;5002560;28;20158;-72
2022/03/21 07:30:37;;;;;;;30.52;19.02;;;6.20;99.90;;;5.82;100.00;98971.31;5020603;28;20046;-72
2022/03/21 07:33:05;;;;;;;29.10;19.15;;;6.40;99.90;;;6.04;100.00;98974.72;5001523;28;20602;-73
2022/03/21 07:35:32;;;;;;;26.70;17.67;;;6.70;99.90;;;6.27;100.00;98975.53;5003969;28;20057;-71
2022/03/21 07:38:00;;;;;;;24.95;16.80;;;6.90;99.90;;;6.53;100.00;98976.31;5002414;28;20605;-72
2022/03/21 07:40:27;;;;;;;24.83;17.67;;;7.10;99.90;;;6.55;100.00;98972.03;5002865;28;20096;-72
2022/03/21 07:42:54;;;;;;;26.48;17.17;;;7.30;99.90;;;6.82;100.00;98964.16;5018978;28;20272;-72
2022/03/21 07:48:06;;;;;;;25.58;16.55;;;7.70;99.90;;;7.39;100.00;98968.06;5001143;28;20056;-71
2022/03/21 07:50:34;;;;;;;24.60;16.25;;;7.90;99.90;;;7.71;100.00;98973.00;4996025;28;20057;-72
2022/03/21 07:53:01;;;;;;;21.23;13.95;;;8.20;99.90;;;7.85;100.00;98965.97;5007076;28;20129;-72
2022/03/21 07:55:32;;;;;;;26.15;16.25;;;;;;;8.22;100.00;98967.31;4996567;28;20180;-72
2022/03/21 07:58:00;;;;;;;22.27;12.52;;;8.80;99.90;;;8.54;100.00;98969.56;4994139;28;20153;-72
2022/03/21 08:00:30;;;;;;;17.50;9.73;;;9.20;99.90;;;9.05;100.00;98968.91;5019803;28;20054;-72
2022/03/21 08:02:58;;;;;;;18.05;10.30;;;9.60;99.90;;;9.23;100.00;98976.41;5005851;28;20305;-71
2022/03/21 08:05:28;;;;;;;17.60;10.95;;;10.10;99.90;;;9.34;100.00;98981.44;4998901;28;20107;-72
2022/03/21 08:07:56;;;;;;;17.08;9.45;;;10.70;99.90;;;9.94;100.00;98977.88;5004955;28;20116;-72
2022/03/21 08:10:24;;;;;;;13.20;8.50;;;11.20;99.90;;;11.00;100.00;98974.06;5001158;28;20062;-72
2022/03/21 08:12:53;;;;;;;14.27;8.35;;;11.50;99.90;;;11.32;100.00;98980.28;4991381;28;20062;-71
2022/03/21 08:15:20;;;;;;;14.82;8.38;;;11.80;99.90;;;11.52;100.00;98985.03;5001002;28;20061;-72
2022/03/21 08:17:56;;;;;;;13.82;8.50;;;12.10;99.90;;;11.86;100.00;98979.84;5002306;28;20451;-71
2022/03/21 08:20:25;;;;;;;12.75;8.07;;;12.30;99.90;;;11.60;100.00;98974.44;5005545;28;20065;-73
2022/03/21 08:22:52;;;;;;;10.80;7.00;;;12.60;99.90;;;11.93;100.00;98973.63;5001746;28;20073;-72
2022/03/21 08:25:20;;;;;;;12.05;7.75;;;12.70;99.90;;;11.97;100.00;98979.59;5002334;28;20113;-72
2022/03/21 08:27:48;;;;;;;16.50;7.07;;;13.00;99.90;;;12.66;100.00;98971.69;5004448;28;20046;-71
2022/03/21 08:30:17;;;;;;;11.55;7.47;;;13.00;99.90;;;12.84;100.00;98976.34;5007053;28;20073;-72
2022/03/21 08:32:48;;;;;;;13.50;6.93;;;13.20;99.90;;;13.14;100.00;98971.97;5011236;28;20053;-70
2022/03/21 08:35:18;;;;;;;15.82;7.95;;;13.20;99.90;;;13.66;100.00;98973.84;4999352;28;20055;-71
2022/03/21 08:37:47;;;;;;;13.00;7.82;;;13.50;99.90;;;13.36;100.00;98986.97;5006044;28;20077;-70
2022/03/21 08:40:15;;;;;;;15.07;7.53;;;13.60;99.90;;;13.66;100.00;98989.50;5007091;28;20117;-70
2022/03/21 08:42:42;;;;;;;11.27;6.65;;;13.80;99.20;;;14.30;100.00;98984.72;4990057;28;20047;-70
2022/03/21 08:45:12;;;;;;;10.57;6.95;;;14.00;99.20;;;14.14;100.00;98987.00;5005413;28;20052;-70
2022/03/21 08:47:39;;;;;;;14.05;7.80;;;14.20;98.10;;;14.05;100.00;98999.50;5005554;28;20042;-72
2022/03/21 08:50:07;;;;;;;10.85;6.70;;;14.40;97.00;;;14.10;100.00;98995.00;5004074;28;20088;-71
2022/03/21 08:52:34;;;;;;;12.75;7.35;;;14.50;96.70;;;13.60;100.00;99006.22;5004606;28;20056;-72
2022/03/21 08:55:04;;;;;;;11.25;6.97;;;14.50;95.90;;;13.05;100.00;99000.06;5010275;28;20065;-71
2022/03/21 08:57:32;;;;;;;11.45;6.82;;;14.60;95.70;;;13.15;100.00;98989.28;5005212;28;20105;-72
2022/03/21 09:00:04;;;;;;;12.45;7.18;;;14.60;94.70;;;13.50;100.00;98991.75;5004385;28;20077;-71
2022/03/21 09:02:33;;;;;;;11.57;6.72;;;14.60;95.20;;;14.19;100.00;98981.63;4988845;28;20038;-72
2022/03/21 09:05:01;;;;;;;14.38;7.38;;;14.60;95.00;;;13.48;100.00;98996.16;4999311;28;20114;-71
2022/03/21 09:07:28;;;;;;;13.90;7.25;;;14.50;94.80;;;13.54;100.00;98986.38;5015847;28;20111;-72
2022/03/21 09:09:55;;;;;;;17.73;7.45;;;14.30;94.50;;;13.14;100.00;98998.03;5000572;28;20477;-72
2022/03/21 09:12:22;;;;;;;13.15;6.50;;;14.40;93.90;;;13.01;100.00;99004.50;4999615;28;20050;-71
2022/03/21 09:14:49;;;;;;;10.88;6.90;;;14.50;93.40;;;13.41;100.00;98992.91;4999219;28;20107;-71
2022/03/21 09:17:17;;;;;;;10.23;7.82;;;14.60;93.80;;;13.78;100.00;98996.94;5002609;28;20078;-72
2022/03/21 09:19:44;;;;;;;11.52;7.05;;;14.80;94.20;;;14.35;100.00;98988.00;5000264;28;20187;-70
2022/03/21 09:22:12;;;;;;;13.43;7.28;;;14.90;93.10;;;13.87;100.00;98994.03;4997080;28;20057;-71
2022/03/21 09:24:39;;;;;;;12.15;7.22;;;15.00;93.30;;;13.58;100.00;98992.34;4999693;28;20433;-71
2022/03/21 09:27:06;;;;;;;12.43;7.15;;;15.10;93.10;;;13.90;100.00;98993.91;4998731;28;20045;-71
2022/03/21 09:29:33;;;;;;;14.70;7.07;;;15.10;92.70;;;14.01;100.00;98996.16;5000299;28;20069;-72
2022/03/21 09:32:00;;;;;;;13.48;7.47;;;15.20;93.00;;;14.40;100.00;98990.47;5005917;28;20053;-71
2022/03/21 09:34:28;;;;;;;12.98;6.70;;;15.30;91.80;;;14.53;100.00;98996.97;4997469;28;20057;-72
2022/03/21 09:36:55;;;;;;;10.45;6.82;;;15.30;91.90;;;14.43;100.00;98983.34;5005125;28;20054;-71
2022/03/21 09:39:23;;;;;;;12.52;6.65;;;15.50;91.50;;;15.66;100.00;98986.53;4999863;28;20046;-71
2022/03/21 09:41:50;;;;;;;11.95;6.95;;;15.90;92.50;;;16.50;100.00;98976.91;4998693;28;20444;-71
2022/03/21 09:44:17;;;;;;;11.57;7.22;;;16.20;91.50;;;15.96;100.00;98985.38;5014322;28;20440;-70
2022/03/21 09:46:45;;;;;;;10.20;6.78;;;16.20;90.60;;;16.74;100.00;98976.75;5001493;28;20734;-71
2022/03/21 09:49:16;;;;;;;8.73;5.97;;;16.20;91.70;;;15.58;100.00;98988.63;5000719;28;20074;-71
2022/03/21 09:51:46;;;;;;;11.02;6.30;;;16.40;91.00;;;17.46;100.00;98970.75;4999288;28;20471;-70
2022/03/21 09:54:13;;;;;;;13.60;7.15;;;16.80;91.70;;;15.59;100.00;98982.47;4998635;28;20519;-70
2022/03/21 09:56:40;;;;;;;9.18;6.18;;;17.10;90.30;;;16.16;100.00;98974.91;5004900;28;20129;-71
2022/03/21 09:59:08;;;;;;;11.00;6.28;;;17.20;90.10;;;17.81;100.00;98968.19;5013331;28;20050;-71
2022/03/21 10:01:37;;;;;;;10.18;5.43;;;17.50;90.50;;;16.87;100.00;98961.31;5000314;28;20153;-70
2022/03/21 10:04:06;;;;;;;11.73;6.38;;;17.60;88.20;;;16.38;100.00;98969.59;4997932;28;21316;-71
2022/03/21 10:06:44;;;;;;;9.88;6.53;;;17.50;88.40;;;16.65;100.00;98971.88;4994517;28;20556;-70
2022/03/21 10:09:12;;;;;;;11.20;6.88;;;17.10;88.20;;;16.97;100.00;98972.22;5000423;28;20061;-70
2022/03/21 10:11:57;;;;;;;9.50;6.45;;;16.90;89.80;;;15.35;100.00;98978.22;4995331;28;20116;-71
2022/03/21 10:14:36;;;;;;;9.63;6.05;;;16.80;88.10;;;16.60;100.00;98966.00;5001528;28;20550;-70
2022/03/21 10:17:12;;;;;;;9.38;5.78;;;16.60;90.80;;;16.52;100.00;98968.97;4998573;28;20477;-71
2022/03/21 10:19:47;;;;;;;10.57;6.35;;;16.30;90.60;;;16.98;100.00;98956.41;4999535;28;20048;-71
2022/03/21 10:22:19;;;;;;;10.10;6.57;;;16.10;90.80;;;15.85;100.00;98957.88;5005876;28;20104;-71
2022/03/21 10:24:50;;;;;;;8.35;5.97;;;16.00;90.10;;;15.72;100.00;98953.22;4995909;28;20050;-71
2022/03/21 10:27:41;;;;;;;11.77;6.43;;;15.80;90.70;;;16.19;100.00;98948.56;4985994;28;20431;-70
2022/03/21 10:30:13;;;;;;;10.95;6.50;;;15.80;91.30;;;15.67;100.00;98958.63;5004885;28;20575;-71
2022/03/21 10:32:43;;;;;;;10.48;5.80;;;15.80;91.90;;;15.56;100.00;98963.44;5006192;28;20056;-71
2022/03/21 10:35:23;;;;;;;9.52;5.95;;;15.50;91.40;;;13.87;100.00;98962.69;5002530;28;20054;-72
2022/03/21 10:37:56;;;;;;;9.73;6.13;;;15.40;90.30;;;15.20;100.00;98964.84;5000800;28;20129;-71
2022/03/21 10:40:36;;;;;;;;;;;15.30;91.70;;;15.23;100.00;98962.09;5001807;28;20480;-71
2022/03/21 10:43:09;;;;;;;9.65;6.22;;;15.40;92.40;;;15.33;100.00;98959.97;5002431;28;20342;-70